Saint-Pierre, Reunion
Current Conditions -  °F | °C
As of 11:00 AM on Friday 31 Oct 2014 (Local Time) from FMEP Reporting Station
Clear Clear  
Wind Chill: 81°   Ceiling: Unl
Heat Index: 81°   Visibility: 6mi
Dew Point: 59°   Wind: 25mph
Humidity: 48%   Direction: 130°SE
Pressure: 30.06"   Gusts: NA
Location:  21.32°S, 55.47°E
Report Text: FMEP 310700Z AUTO 13022KT 9999 NCD 27/15 Q1018
Loading
Personal Weather Stations






























Interactive Weather Map
Tropical Storm Tracking
New forecast layout! Learn more

10-Day Weather Forecast

Advertisements
Track Severe Weather on mobile